Time;durP1;ratioP1;P1;durP2;ratioP2;P2;SDS_P1;SDS_P2;PMS_P1;PMS_P2;Temp;Humidity;BMP_temperature;BMP_pressure;BME280_temperature;BME280_humidity;BME280_pressure;Samples;Min_cycle;Max_cycle;Signal;HPM_P1;HPM_P2
2021/09/14 00:00:21;;;;;;;16.75;13.63;;;;;;;14.16;100.00;95886.56;1033989;28;20025;-67
2021/09/14 00:00:52;;;;;;;15.48;13.88;;;;;;;14.14;100.00;95884.19;1035859;28;20022;-67
2021/09/14 00:01:22;;;;;;;15.95;14.27;;;;;;;14.14;100.00;95889.47;1038615;28;20029;-67
2021/09/14 00:01:53;;;;;;;15.68;13.98;;;;;;;14.13;100.00;95882.63;1031100;28;20506;-67
2021/09/14 00:02:23;;;;;;;15.88;14.07;;;;;;;14.13;100.00;95882.63;1034979;28;20098;-67
2021/09/14 00:02:54;;;;;;;14.82;13.32;;;;;;;14.12;100.00;95882.94;1030828;28;20033;-67
2021/09/14 00:03:24;;;;;;;15.85;13.85;;;;;;;14.10;100.00;95880.56;1022842;28;20382;-67
2021/09/14 00:03:55;;;;;;;16.60;14.35;;;;;;;14.08;100.00;95879.25;1026173;28;20031;-68
2021/09/14 00:04:25;;;;;;;19.33;13.82;;;;;;;14.06;100.00;95881.41;1026516;28;20030;-67
2021/09/14 00:04:56;;;;;;;15.02;13.52;;;;;;;14.05;100.00;95879.81;1028548;28;20116;-67
2021/09/14 00:05:26;;;;;;;15.18;13.57;;;;;;;14.04;100.00;95883.53;1036692;28;20029;-67
2021/09/14 00:05:58;;;;;;;16.35;14.68;;;;;;;14.03;100.00;95881.97;1034723;28;20537;-67
2021/09/14 00:06:29;;;;;;;15.32;13.18;;;;;;;14.01;100.00;95878.81;1035147;28;20026;-67
2021/09/14 00:06:59;;;;;;;15.52;13.93;;;;;;;13.98;100.00;95882.78;1031116;28;20025;-66
2021/09/14 00:07:29;;;;;;;15.88;13.75;;;;;;;13.98;100.00;95885.44;1034997;28;20038;-67
2021/09/14 00:08:00;;;;;;;14.70;13.15;;;;;;;13.98;100.00;95887.28;1038697;28;20032;-67
2021/09/14 00:08:30;;;;;;;14.93;13.20;;;;;;;13.95;100.00;95883.38;1039105;28;20025;-67
2021/09/14 00:09:01;;;;;;;15.32;13.77;;;;;;;13.96;100.00;95881.50;1039294;28;20622;-67
2021/09/14 00:09:31;;;;;;;17.67;13.18;;;;;;;13.91;100.00;95877.84;1038751;28;20024;-67
2021/09/14 00:10:03;;;;;;;14.90;12.98;;;;;;;13.92;100.00;95883.94;1035078;28;20018;-67
2021/09/14 00:10:33;;;;;;;15.00;12.65;;;;;;;13.90;100.00;95889.47;1034873;28;20029;-67
2021/09/14 00:11:04;;;;;;;16.73;13.98;;;;;;;13.88;100.00;95878.44;1035020;28;20026;-67
2021/09/14 00:11:35;;;;;;;14.60;13.05;;;;;;;13.85;100.00;95878.97;1034391;28;20030;-67
2021/09/14 00:12:05;;;;;;;14.93;13.32;;;;;;;13.86;100.00;95883.19;1030842;28;20485;-67
2021/09/14 00:12:36;;;;;;;18.42;14.13;;;;;;;13.87;100.00;95883.97;1026727;28;20027;-67
2021/09/14 00:13:07;;;;;;;15.52;13.90;;;;;;;13.88;100.00;95890.81;1022874;28;20031;-67
2021/09/14 00:13:38;;;;;;;16.50;14.80;;;;;;;13.88;100.00;95886.34;1027184;28;20058;-64
2021/09/14 00:14:08;;;;;;;16.80;14.45;;;;;;;13.88;100.00;95886.34;1031158;28;20022;-67
2021/09/14 00:14:39;;;;;;;19.38;14.63;;;;;;;13.87;100.00;95879.47;1030806;28;20035;-65
2021/09/14 00:15:09;;;;;;;15.68;13.48;;;;;;;13.85;100.00;95881.63;1035038;28;20556;-67
2021/09/14 00:15:40;;;;;;;15.25;13.63;;;;;;;13.89;100.00;95887.91;1030546;28;20057;-67
2021/09/14 00:16:10;;;;;;;15.52;13.85;;;;;;;13.87;100.00;95882.13;1030463;28;20038;-65
2021/09/14 00:16:41;;;;;;;15.57;13.98;;;;;;;13.88;100.00;95881.06;1026811;28;20027;-67
2021/09/14 00:17:11;;;;;;;17.40;14.20;;;;;;;13.88;100.00;95881.06;1026931;28;20015;-67
2021/09/14 00:17:41;;;;;;;18.60;14.07;;;;;;;13.89;100.00;95882.63;1034816;28;20026;-67
2021/09/14 00:18:12;;;;;;;16.38;14.65;;;;;;;13.89;100.00;95882.63;1034343;28;20030;-67
2021/09/14 00:18:43;;;;;;;15.70;14.13;;;;;;;13.91;100.00;95880.47;1035005;28;20018;-67
2021/09/14 00:19:15;;;;;;;16.35;14.43;;;;;;;13.88;100.00;95883.69;1032622;28;20483;-68
2021/09/14 00:19:45;;;;;;;16.75;14.90;;;;;;;13.87;100.00;95884.75;1026149;28;20027;-66
2021/09/14 00:20:16;;;;;;;16.60;14.82;;;;;;;13.87;100.00;95884.75;1019857;29;20564;-66
2021/09/14 00:20:46;;;;;;;15.15;13.48;;;;;;;13.87;100.00;95890.03;1019456;28;20119;-67
2021/09/14 00:21:17;;;;;;;19.58;14.35;;;;;;;13.82;100.00;95876.91;1026590;28;20019;-66
2021/09/14 00:21:48;;;;;;;16.02;14.40;;;;;;;13.87;100.00;95890.03;1026840;28;20117;-68
2021/09/14 00:22:18;;;;;;;17.08;14.70;;;;;;;13.85;100.00;95880.84;1030787;28;20034;-65
2021/09/14 00:22:49;;;;;;;15.98;14.30;;;;;;;13.86;100.00;95887.69;1030969;28;20030;-67
2021/09/14 00:23:19;;;;;;;16.77;14.82;;;;;;;13.83;100.00;95883.75;1026533;28;20496;-64
2021/09/14 00:23:50;;;;;;;16.08;14.25;;;;;;;13.80;100.00;95878.25;1034918;28;20411;-68
2021/09/14 00:24:20;;;;;;;15.27;13.70;;;;;;;13.83;100.00;95883.75;1034800;28;20096;-67
2021/09/14 00:24:50;;;;;;;15.77;14.18;;;;;;;13.83;100.00;95873.19;1026883;28;20023;-67
2021/09/14 00:25:21;;;;;;;16.25;13.48;;;;;;;13.83;100.00;95878.47;1025181;28;20031;-67
2021/09/14 00:25:51;;;;;;;15.20;13.60;;;;;;;13.81;100.00;95879.81;1026612;28;20014;-67
2021/09/14 00:26:22;;;;;;;15.73;13.90;;;;;;;13.67;100.00;95856.72;1024300;28;20099;-67
2021/09/14 00:26:52;;;;;;;16.20;14.50;;;;;;;13.80;100.00;95886.94;1024104;28;20019;-67
2021/09/14 00:27:23;;;;;;;17.02;14.63;;;;;;;13.79;100.00;95880.09;1026758;28;20030;-67
2021/09/14 00:27:53;;;;;;;16.52;14.10;;;;;;;13.79;100.00;95881.94;1022848;28;20019;-67
2021/09/14 00:28:23;;;;;;;14.90;13.30;;;;;;;13.78;100.00;95881.16;1026732;28;20035;-67
2021/09/14 00:28:54;;;;;;;16.50;14.52;;;;;;;13.78;100.00;95886.44;1030609;28;20046;-67
2021/09/14 00:29:25;;;;;;;15.52;13.93;;;;;;;13.79;100.00;95885.38;1030820;28;20036;-66
2021/09/14 00:29:55;;;;;;;16.83;14.00;;;;;;;13.77;100.00;95882.22;1031135;28;20018;-67
2021/09/14 00:30:26;;;;;;;15.07;13.50;;;;;;;13.77;100.00;95884.84;1031861;28;20579;-67
2021/09/14 00:30:56;;;;;;;16.63;13.63;;;;;;;13.76;100.00;95887.78;1026933;28;20641;-67
2021/09/14 00:31:27;;;;;;;17.08;13.98;;;;;;;13.73;100.00;95883.84;1026222;28;20034;-67
2021/09/14 00:31:58;;;;;;;17.40;14.35;;;;;;;13.73;100.00;95889.13;1026289;28;20468;-65
2021/09/14 00:32:28;;;;;;;15.80;14.10;;;;;;;13.72;100.00;95892.81;1026927;28;20066;-67
2021/09/14 00:32:59;;;;;;;16.17;13.38;;;;;;;13.70;100.00;95889.66;1026916;28;20034;-66
2021/09/14 00:33:29;;;;;;;16.20;13.05;;;;;;;13.67;100.00;95887.59;1030716;28;20081;-67
2021/09/14 00:34:00;;;;;;;20.13;13.88;;;;;;;13.62;100.00;95888.44;1034794;28;20655;-67
2021/09/14 00:34:30;;;;;;;41.17;16.70;;;;;;;13.61;100.00;95886.84;1034804;28;20528;-67
2021/09/14 00:35:01;;;;;;;28.98;14.38;;;;;;;13.57;100.00;95880.56;1033110;28;20033;-64
2021/09/14 00:35:31;;;;;;;24.08;14.27;;;;;;;13.56;100.00;95886.91;1030303;28;20022;-67
2021/09/14 00:36:01;;;;;;;32.75;13.82;;;;;;;13.55;100.00;95889.81;1030839;28;20089;-67
2021/09/14 00:36:32;;;;;;;19.27;13.75;;;;;;;13.54;100.00;95888.22;1030839;28;20778;-67
2021/09/14 00:37:04;;;;;;;19.92;14.70;;;;;;;13.50;100.00;95885.38;1034392;28;20026;-67
2021/09/14 00:37:34;;;;;;;23.02;15.48;;;;;;;13.49;100.00;95883.03;1034992;28;20081;-66
2021/09/14 00:38:05;;;;;;;22.67;14.30;;;;;;;13.47;100.00;95885.13;1031056;28;20679;-67
2021/09/14 00:38:35;;;;;;;25.88;14.65;;;;;;;13.46;100.00;95889.63;1034547;28;20029;-67
2021/09/14 00:39:05;;;;;;;16.70;14.32;;;;;;;13.46;100.00;95880.94;1035057;28;20041;-67
2021/09/14 00:39:36;;;;;;;25.35;14.48;;;;;;;13.44;100.00;95881.19;1035146;28;20025;-67
2021/09/14 00:40:07;;;;;;;19.05;13.55;;;;;;;13.44;100.00;95881.97;1033788;28;20081;-67
2021/09/14 00:40:37;;;;;;;14.82;13.27;;;;;;;13.43;100.00;95879.63;1026535;28;20036;-64
2021/09/14 00:41:08;;;;;;;17.67;13.93;;;;;;;13.42;100.00;95881.47;1027183;28;20141;-67
2021/09/14 00:41:39;;;;;;;15.60;13.15;;;;;;;13.42;100.00;95878.84;1026416;28;20034;-66
2021/09/14 00:42:09;;;;;;;16.20;13.25;;;;;;;13.47;100.00;95879.88;1026710;28;20034;-68
2021/09/14 00:42:40;;;;;;;16.80;14.15;;;;;;;13.44;100.00;95876.72;1022858;29;20457;-66
2021/09/14 00:43:20;;;;;;;16.98;14.10;;;;;;;13.45;100.00;95874.88;1015157;29;20044;-67
2021/09/14 00:44:00;;;;;;;16.77;14.57;;;;;;;13.46;100.00;95873.81;1022983;28;20024;-67
2021/09/14 00:44:30;;;;;;;17.10;14.27;;;;;;;13.48;100.00;95878.78;1032203;28;20034;-66
2021/09/14 00:45:02;;;;;;;16.23;14.32;;;;;;;13.43;100.00;95872.50;1037664;28;20490;-67
2021/09/14 00:45:33;;;;;;;15.35;13.73;;;;;;;13.41;100.00;95858.84;1033266;28;20030;-67
2021/09/14 00:46:03;;;;;;;15.65;13.15;;;;;;;13.39;100.00;95862.81;1035026;28;20467;-67
2021/09/14 00:46:34;;;;;;;17.90;14.40;;;;;;;13.46;100.00;95870.38;1026990;28;20396;-67
2021/09/14 00:47:04;;;;;;;17.65;14.52;;;;;;;13.46;100.00;95873.03;1024638;28;20481;-67
2021/09/14 00:47:35;;;;;;;16.02;14.38;;;;;;;13.46;100.00;95873.81;1026794;28;20042;-67
2021/09/14 00:48:05;;;;;;;16.30;14.60;;;;;;;13.44;100.00;95871.44;1027172;28;20065;-67
2021/09/14 00:48:36;;;;;;;15.27;13.75;;;;;;;13.45;100.00;95874.88;1030793;28;20423;-67
2021/09/14 00:49:06;;;;;;;18.90;15.02;;;;;;;13.42;100.00;95870.94;1030566;28;20026;-67
2021/09/14 00:49:37;;;;;;;17.48;14.68;;;;;;;13.40;100.00;95865.16;1027076;28;20027;-67
2021/09/14 00:50:08;;;;;;;15.98;14.27;;;;;;;13.41;100.00;95877.28;1023002;28;20035;-67
2021/09/14 00:50:38;;;;;;;15.63;13.77;;;;;;;13.41;100.00;95872.00;1022585;28;20063;-64
2021/09/14 00:51:09;;;;;;;15.07;13.45;;;;;;;13.42;100.00;95873.56;1019106;29;20043;-67
2021/09/14 00:51:39;;;;;;;16.88;14.02;;;;;;;13.35;100.00;95862.56;1018647;28;20024;-67
2021/09/14 00:52:10;;;;;;;17.55;14.10;;;;;;;13.39;100.00;95868.06;1026992;28;20042;-67
2021/09/14 00:52:40;;;;;;;15.45;13.80;;;;;;;13.32;100.00;95855.22;1034542;28;20022;-66
2021/09/14 00:53:11;;;;;;;18.92;15.60;;;;;;;13.39;100.00;95868.84;1027021;28;20771;-67
2021/09/14 00:53:41;;;;;;;16.67;14.13;;;;;;;13.37;100.00;95860.44;1026863;28;20034;-67
2021/09/14 00:54:13;;;;;;;15.93;14.13;;;;;;;13.40;100.00;95864.38;1030752;28;20030;-67
2021/09/14 00:54:44;;;;;;;14.95;13.02;;;;;;;13.36;100.00;95864.13;1035273;28;20484;-66
2021/09/14 00:55:14;;;;;;;15.45;13.85;;;;;;;13.36;100.00;95864.13;1034943;28;20024;-67
2021/09/14 00:55:45;;;;;;;15.57;13.32;;;;;;;13.28;100.00;95854.19;1027981;28;20031;-67
2021/09/14 00:56:16;;;;;;;15.70;13.93;;;;;;;13.34;100.00;95862.84;1027018;28;20117;-67
2021/09/14 00:56:46;;;;;;;14.30;12.73;;;;;;;13.29;100.00;95853.13;1027131;28;20034;-67
2021/09/14 00:57:17;;;;;;;15.30;13.13;;;;;;;13.33;100.00;95864.69;1026964;28;20030;-67
2021/09/14 00:57:48;;;;;;;15.35;13.32;;;;;;;13.32;100.00;95860.47;1031070;28;20042;-66
2021/09/14 00:58:18;;;;;;;18.30;14.10;;;;;;;13.31;100.00;95866.81;1030957;28;20105;-64
2021/09/14 00:58:48;;;;;;;15.90;13.18;;;;;;;13.29;100.00;95861.03;1027878;28;20033;-67
2021/09/14 00:59:19;;;;;;;14.38;12.88;;;;;;;13.30;100.00;95864.44;1024146;28;20034;-66
2021/09/14 00:59:49;;;;;;;15.85;14.07;;;;;;;13.26;100.00;95850.25;1019132;28;20032;-66
2021/09/14 01:00:20;;;;;;;15.82;14.13;;;;;;;13.27;100.00;95857.88;1023066;28;20027;-66
2021/09/14 01:00:53;;;;;;;15.55;13.95;;;;;;;13.30;100.00;95859.19;1027286;28;20066;-66
2021/09/14 01:01:23;;;;;;;16.27;14.40;;;;;;;13.29;100.00;95857.63;1030738;28;20030;-66
2021/09/14 01:01:54;;;;;;;17.13;14.15;;;;;;;13.28;100.00;95859.47;1034902;28;20030;-67
2021/09/14 01:02:24;;;;;;;16.38;14.68;;;;;;;13.28;100.00;95861.28;1027189;28;20035;-67
2021/09/14 01:02:55;;;;;;;20.73;14.27;;;;;;;13.28;100.00;95858.66;1026983;28;20500;-66
2021/09/14 01:03:25;;;;;;;18.00;14.68;;;;;;;13.28;100.00;95856.03;1022761;28;20031;-67
2021/09/14 01:03:56;;;;;;;16.45;14.65;;;;;;;13.27;100.00;95860.50;1022814;28;20023;-67
2021/09/14 01:04:29;;;;;;;20.95;15.48;;;;;;;13.26;100.00;95853.69;1029301;28;20030;-66
2021/09/14 01:05:00;;;;;;;17.35;15.15;;;;;;;13.25;100.00;95857.38;1027263;28;20065;-67
2021/09/14 01:05:30;;;;;;;19.00;16.17;;;;;;;13.25;100.00;95860.03;1031411;28;20364;-66
2021/09/14 01:06:01;;;;;;;20.17;14.98;;;;;;;13.23;100.00;95856.84;1036840;28;20025;-66
2021/09/14 01:06:34;;;;;;;16.88;15.10;;;;;;;13.21;100.00;95858.94;1031164;28;20065;-67
2021/09/14 01:07:05;;;;;;;17.27;15.38;;;;;;;13.20;100.00;95850.25;1030921;28;20026;-67
2021/09/14 01:07:35;;;;;;;18.30;15.18;;;;;;;13.18;100.00;95855.03;1033282;28;20273;-66
2021/09/14 01:08:06;;;;;;;18.75;16.13;;;;;;;13.21;100.00;95856.31;1023488;28;20057;-67
2021/09/14 01:08:37;;;;;;;17.30;15.50;;;;;;;13.20;100.00;95852.13;1027118;28;20081;-67
2021/09/14 01:09:08;;;;;;;28.45;15.90;;;;;;;13.17;100.00;95844.75;1032946;28;20096;-67
2021/09/14 01:09:38;;;;;;;23.90;17.35;;;;;;;13.17;100.00;95852.66;1026655;28;20760;-65
2021/09/14 01:10:12;;;;;;;17.10;15.30;;;;;;;13.18;100.00;95852.41;1026845;28;20509;-67
2021/09/14 01:10:43;;;;;;;18.38;16.23;;;;;;;13.17;100.00;95855.28;1030645;28;20038;-67
2021/09/14 01:11:13;;;;;;;17.67;15.25;;;;;;;13.14;100.00;95850.56;1028551;28;20281;-65
2021/09/14 01:11:44;;;;;;;17.42;15.50;;;;;;;13.16;100.00;95856.38;1027114;28;20109;-67
2021/09/14 01:12:17;;;;;;;19.85;15.20;;;;;;;13.16;100.00;95857.16;1026783;28;20101;-67
2021/09/14 01:12:47;;;;;;;18.23;15.50;;;;;;;13.12;100.00;95848.22;1020621;28;21168;-67
2021/09/14 01:13:18;;;;;;;19.13;16.10;;;;;;;13.14;100.00;95854.00;1022955;28;20301;-64
2021/09/14 01:13:48;;;;;;;18.95;15.85;;;;;;;13.14;100.00;95850.56;1029280;28;20030;-65
2021/09/14 01:14:19;;;;;;;19.13;15.93;;;;;;;13.15;100.00;95858.22;1030500;28;20072;-65
2021/09/14 01:14:53;;;;;;;19.70;15.52;;;;;;;13.14;100.00;95854.00;1030918;28;20468;-66
2021/09/14 01:15:26;;;;;;;18.65;16.00;;;;;;;13.12;100.00;95853.50;1038797;28;20029;-68
2021/09/14 01:16:06;;;;;;;19.35;15.70;;;;;;;13.13;100.00;95856.91;1037695;28;20363;-66
2021/09/14 01:16:39;;;;;;;19.17;15.43;;;;;;;13.14;100.00;95850.56;1034650;28;20272;-67
2021/09/14 01:17:09;;;;;;;18.42;15.82;;;;;;;13.13;100.00;95859.56;1032868;28;20289;-67
2021/09/14 01:17:40;;;;;;;18.48;15.95;;;;;;;13.13;100.00;95851.66;1034875;28;20272;-67
2021/09/14 01:18:10;;;;;;;18.17;15.95;;;;;;;13.12;100.00;95855.34;1034385;28;20057;-66
2021/09/14 01:18:41;;;;;;;17.17;15.10;;;;;;;13.12;100.00;95855.34;1030805;28;20490;-67
2021/09/14 01:19:11;;;;;;;18.90;16.35;;;;;;;13.05;100.00;95842.50;1030752;28;20126;-67
2021/09/14 01:19:42;;;;;;;20.05;15.60;;;;;;;13.10;100.00;95852.97;1030531;28;20042;-67
2021/09/14 01:20:12;;;;;;;18.85;16.10;;;;;;;13.09;100.00;95853.25;1033123;28;20027;-67
2021/09/14 01:20:43;;;;;;;18.73;16.60;;;;;;;13.09;100.00;95854.03;1034949;28;20030;-67
2021/09/14 01:21:20;;;;;;;19.50;15.82;;;;;;;13.08;100.00;95852.47;1034408;28;20033;-67
2021/09/14 01:21:50;;;;;;;20.77;16.33;;;;;;;13.08;100.00;95849.06;1034475;28;20030;-67
2021/09/14 01:22:31;;;;;;;20.92;15.77;;;;;;;13.06;100.00;95841.41;1030694;28;20269;-66
2021/09/14 01:23:01;;;;;;;;;;;;;;;13.06;100.00;95851.19;1031158;28;20022;-67
2021/09/14 01:23:32;;;;;;;19.92;15.98;;;;;;;13.05;100.00;95847.75;1033886;28;19960;-67
2021/09/14 01:24:02;;;;;;;21.00;16.50;;;;;;;12.98;100.00;95842.81;1042918;28;20097;-67
2021/09/14 01:24:33;;;;;;;19.00;15.95;;;;;;;13.04;100.00;95846.16;1034030;28;20062;-66
2021/09/14 01:25:20;;;;;;;20.20;16.42;;;;;;;13.05;100.00;95849.63;1030381;28;20451;-67
2021/09/14 01:25:50;;;;;;;18.45;16.15;;;;;;;13.04;100.00;95846.16;1033102;28;20105;-67
2021/09/14 01:26:21;;;;;;;19.60;15.20;;;;;;;13.03;100.00;95843.81;1030341;28;20787;-67
2021/09/14 01:26:52;;;;;;;22.40;16.67;;;;;;;12.99;100.00;95840.94;1030613;28;20554;-67
2021/09/14 01:27:22;;;;;;;20.58;16.27;;;;;;;12.96;100.00;95834.38;1022976;28;20568;-67
2021/09/14 01:27:56;;;;;;;17.45;15.65;;;;;;;12.97;100.00;95846.47;1023052;28;20286;-67
2021/09/14 01:28:26;;;;;;;19.30;17.10;;;;;;;13.03;100.00;95849.88;1023320;28;20027;-66
2021/09/14 01:28:57;;;;;;;18.73;16.75;;;;;;;12.95;100.00;95845.97;1023467;28;20306;-67
2021/09/14 01:30:20;;;;;;;18.58;16.33;;;;;;;13.01;100.00;95854.66;1031022;28;20432;-67
2021/09/14 01:30:51;;;;;;;20.50;16.55;;;;;;;13.02;100.00;95852.78;1030771;28;20704;-67
2021/09/14 01:31:21;;;;;;;21.70;17.67;;;;;;;13.01;100.00;95853.84;1032954;28;20272;-67
2021/09/14 01:31:51;;;;;;;20.15;16.83;;;;;;;12.98;100.00;95850.72;1030731;28;20027;-66
2021/09/14 01:32:22;;;;;;;19.17;16.95;;;;;;;13.00;100.00;95860.94;1030763;28;20461;-67
2021/09/14 01:32:53;;;;;;;18.00;16.20;;;;;;;12.98;100.00;95855.19;1030838;28;20412;-66
2021/09/14 01:33:24;;;;;;;20.27;18.00;;;;;;;12.97;100.00;95862.28;1026615;28;20035;-66
2021/09/14 01:33:54;;;;;;;22.58;17.90;;;;;;;12.95;100.00;95853.88;1034168;28;20256;-67
2021/09/14 01:34:25;;;;;;;18.70;16.27;;;;;;;12.95;100.00;95855.75;1038873;28;20055;-67
2021/09/14 01:35:02;;;;;;;17.48;15.65;;;;;;;12.93;100.00;95861.25;1034697;28;20022;-67
2021/09/14 01:35:33;;;;;;;19.85;15.43;;;;;;;12.93;100.00;95858.63;1030630;28;20476;-67
2021/09/14 01:36:04;;;;;;;18.85;16.30;;;;;;;12.90;100.00;95859.19;1030768;28;20254;-67
2021/09/14 01:36:35;;;;;;;19.42;16.35;;;;;;;12.92;100.00;95859.69;1023718;28;20299;-64
2021/09/14 01:37:06;;;;;;;17.77;15.75;;;;;;;12.87;100.00;95854.44;1023812;28;20050;-67
2021/09/14 01:37:37;;;;;;;21.23;17.23;;;;;;;12.86;100.00;95849.47;1026880;28;20019;-67
2021/09/14 01:38:07;;;;;;;19.50;16.75;;;;;;;12.88;100.00;95855.25;1022835;28;20270;-64
2021/09/14 01:38:38;;;;;;;23.42;16.75;;;;;;;12.85;100.00;95845.28;1018807;29;20028;-63
2021/09/14 01:39:08;;;;;;;20.27;17.42;;;;;;;12.92;100.00;95856.28;1018974;29;20020;-67
2021/09/14 01:39:38;;;;;;;20.50;17.75;;;;;;;12.86;100.00;95849.47;1018801;29;20039;-65
2021/09/14 01:40:09;;;;;;;19.13;16.85;;;;;;;12.90;100.00;95856.53;1025376;28;20038;-67
2021/09/14 01:40:40;;;;;;;21.58;17.67;;;;;;;12.88;100.00;95850.00;1023884;28;20018;-66
2021/09/14 01:41:11;;;;;;;19.92;17.35;;;;;;;12.91;100.00;95855.50;1026232;28;20031;-65
2021/09/14 01:41:41;;;;;;;19.90;15.07;;;;;;;12.89;100.00;95854.19;1030419;28;20023;-66
2021/09/14 01:42:11;;;;;;;24.42;16.15;;;;;;;12.88;100.00;95858.69;1033300;28;20041;-66
2021/09/14 01:42:42;;;;;;;17.58;14.98;;;;;;;12.85;100.00;95853.97;1030776;28;20019;-66
2021/09/14 01:43:12;;;;;;;18.17;15.05;;;;;;;12.87;100.00;95857.09;1029566;28;20042;-66
2021/09/14 01:43:43;;;;;;;22.38;15.43;;;;;;;12.85;100.00;95851.31;1019015;29;20399;-63
2021/09/14 01:44:16;;;;;;;17.98;15.50;;;;;;;12.85;100.00;95853.97;1016788;29;20035;-66
2021/09/14 01:44:46;;;;;;;18.77;16.40;;;;;;;12.82;100.00;95841.34;1018462;29;20059;-66
2021/09/14 01:45:17;;;;;;;18.65;16.65;;;;;;;12.85;100.00;95846.06;1029050;28;20269;-67
2021/09/14 01:45:47;;;;;;;21.27;17.27;;;;;;;12.87;100.00;95851.81;1029474;28;20126;-67
2021/09/14 01:46:18;;;;;;;21.10;17.52;;;;;;;12.88;100.00;95852.63;1038497;28;20033;-65
2021/09/14 01:46:51;;;;;;;20.65;14.38;;;;;;;12.88;100.00;95852.63;1038456;28;20033;-66
2021/09/14 01:47:21;;;;;;;19.08;16.02;;;;;;;12.89;100.00;95849.72;1030960;28;20037;-67
2021/09/14 01:47:52;;;;;;;21.92;17.77;;;;;;;12.91;100.00;95857.31;1038707;28;20264;-67
2021/09/14 01:48:22;;;;;;;22.08;18.13;;;;;;;12.89;100.00;95849.72;1038493;28;20102;-66
2021/09/14 01:48:52;;;;;;;20.15;17.95;;;;;;;12.88;100.00;95850.78;1034514;28;20029;-67
2021/09/14 01:49:26;;;;;;;24.17;21.05;;;;;;;12.93;100.00;95849.94;1034380;28;20038;-67
2021/09/14 01:49:56;;;;;;;25.02;19.63;;;;;;;12.92;100.00;95857.06;1030689;28;20046;-67
2021/09/14 01:50:27;;;;;;;24.48;19.85;;;;;;;12.93;100.00;95852.56;1030724;28;20293;-67
2021/09/14 01:51:00;;;;;;;23.90;20.33;;;;;;;12.96;100.00;95849.41;1034873;28;20093;-68
2021/09/14 01:51:30;;;;;;;25.83;20.30;;;;;;;12.96;100.00;95841.50;1029408;28;20038;-67
2021/09/14 01:52:01;;;;;;;23.95;21.30;;;;;;;13.01;100.00;95852.00;1030095;28;20353;-67
2021/09/14 01:52:32;;;;;;;24.85;21.60;;;;;;;13.06;100.00;95853.81;1026892;28;20408;-67
2021/09/14 01:53:04;;;;;;;26.83;22.33;;;;;;;13.11;100.00;95848.50;1026743;28;20041;-67
2021/09/14 01:53:34;;;;;;;27.38;22.77;;;;;;;13.13;100.00;95847.16;1030167;28;20275;-67
2021/09/14 01:54:04;;;;;;;27.35;24.10;;;;;;;13.15;100.00;95857.44;1027975;28;20328;-67
2021/09/14 01:54:35;;;;;;;26.25;23.02;;;;;;;13.13;100.00;95854.28;1035048;28;20029;-67
2021/09/14 01:55:07;;;;;;;28.02;23.58;;;;;;;13.10;100.00;95849.56;1038689;28;20770;-67
2021/09/14 01:55:38;;;;;;;29.60;23.95;;;;;;;13.08;100.00;95841.94;1029045;28;20030;-64
2021/09/14 01:56:08;;;;;;;26.42;23.75;;;;;;;13.17;100.00;95847.38;1026669;28;20999;-67
2021/09/14 01:56:39;;;;;;;28.02;24.77;;;;;;;13.20;100.00;95849.47;1026160;28;20034;-66
2021/09/14 01:57:10;;;;;;;26.67;23.02;;;;;;;13.22;100.00;95850.00;1026718;28;20030;-67
2021/09/14 01:57:42;;;;;;;30.08;24.30;;;;;;;13.25;100.00;95853.97;1034257;28;20036;-67
2021/09/14 01:58:12;;;;;;;27.90;23.98;;;;;;;13.26;100.00;95855.53;1034467;28;20029;-66
2021/09/14 01:58:43;;;;;;;34.55;25.35;;;;;;;13.27;100.00;95854.47;1033898;28;20608;-67
2021/09/14 01:59:14;;;;;;;29.73;25.10;;;;;;;13.28;100.00;95856.03;1028180;28;20022;-67
2021/09/14 01:59:50;;;;;;;27.90;24.77;;;;;;;13.27;100.00;95859.72;1030685;28;20061;-67
2021/09/14 02:00:23;;;;;;;30.90;25.08;;;;;;;13.27;100.00;95852.59;1034409;28;20260;-66
2021/09/14 02:01:12;;;;;;;28.17;25.02;;;;;;;13.18;100.00;95841.09;1025190;28;20390;-67
2021/09/14 02:01:50;;;;;;;28.58;24.90;;;;;;;13.28;100.00;95856.84;1029864;28;20296;-67
2021/09/14 02:03:51;;;;;;;29.88;25.25;;;;;;;13.30;100.00;95859.97;1026010;28;20035;-66
2021/09/14 02:04:36;;;;;;;29.25;24.73;;;;;;;13.31;100.00;95858.91;1031516;28;20491;-67
2021/09/14 02:05:13;;;;;;;30.88;24.30;;;;;;;13.30;100.00;95862.59;1037917;28;20119;-67
2021/09/14 02:06:50;;;;;;;26.98;24.02;;;;;;;13.32;100.00;95857.06;1034886;28;20267;-63
2021/09/14 02:07:41;;;;;;;30.65;24.63;;;;;;;13.33;100.00;95859.41;1038235;28;20263;-67
2021/09/14 02:34:00;;;;;;;24.40;20.52;;;;;;;13.10;100.00;95858.25;1035072;28;20686;-67
2021/09/14 02:38:35;;;;;;;25.55;20.90;;;;;;;13.15;100.00;95857.44;1036202;28;20310;-67
2021/09/14 02:41:09;;;;;;;25.95;20.67;;;;;;;13.17;100.00;95857.94;1027158;28;20329;-66
2021/09/14 02:42:25;;;;;;;24.15;20.77;;;;;;;13.20;100.00;95863.44;1029906;28;20038;-67
2021/09/14 02:44:05;;;;;;;22.77;19.75;;;;;;;13.22;100.00;95857.91;1032322;28;20265;-67
2021/09/14 02:56:05;;;;;;;24.80;20.80;;;;;;;13.21;100.00;95858.94;1028523;28;20304;-67
2021/09/14 02:59:07;;;;;;;30.33;24.05;;;;;;;12.89;100.00;95854.97;1030175;28;20874;-67
2021/09/14 02:59:37;;;;;;;31.45;25.38;;;;;;;12.83;100.00;95845.53;1030412;28;20269;-67
2021/09/14 03:00:08;;;;;;;31.55;24.48;;;;;;;12.88;100.00;95852.63;1033318;28;20057;-67
2021/09/14 03:00:39;;;;;;;30.95;24.40;;;;;;;12.87;100.00;95846.56;1038993;28;20120;-67
2021/09/14 03:01:11;;;;;;;31.48;26.30;;;;;;;12.83;100.00;95842.13;1035206;28;20088;-66
2021/09/14 03:01:41;;;;;;;31.10;25.48;;;;;;;12.86;100.00;95846.84;1025373;28;20050;-67
2021/09/14 03:02:14;;;;;;;29.38;25.38;;;;;;;12.86;100.00;95852.09;1031070;28;20308;-67
2021/09/14 03:02:45;;;;;;;31.60;25.92;;;;;;;12.86;100.00;95849.47;1031738;28;20276;-68
2021/09/14 03:03:15;;;;;;;29.00;24.77;;;;;;;12.84;100.00;95849.72;1027740;28;20493;-67
2021/09/14 03:04:08;;;;;;;31.77;24.98;;;;;;;12.84;100.00;95849.72;1031280;28;20564;-67
2021/09/14 03:04:39;;;;;;;37.97;26.15;;;;;;;12.82;100.00;95849.22;1023195;29;20026;-66
2021/09/14 03:05:10;;;;;;;32.35;25.92;;;;;;;12.82;100.00;95848.44;1029318;28;20288;-66
2021/09/14 03:05:40;;;;;;;34.38;25.77;;;;;;;12.81;100.00;95844.22;1034379;28;20046;-67
2021/09/14 03:06:11;;;;;;;32.38;26.13;;;;;;;12.80;100.00;95840.03;1034812;28;20288;-67
2021/09/14 03:06:41;;;;;;;38.15;24.83;;;;;;;12.78;100.00;95842.16;1034917;28;20224;-67
2021/09/14 03:07:12;;;;;;;31.35;26.20;;;;;;;12.78;100.00;95850.84;1031254;28;20029;-67
2021/09/14 03:07:42;;;;;;;33.20;26.17;;;;;;;12.77;100.00;95844.00;1030788;28;20014;-67
2021/09/14 03:08:13;;;;;;;31.35;25.08;;;;;;;12.77;100.00;95845.84;1035303;28;20026;-67
2021/09/14 03:08:43;;;;;;;34.47;25.63;;;;;;;12.76;100.00;95845.06;1035227;28;20025;-67
2021/09/14 03:09:13;;;;;;;34.50;25.92;;;;;;;12.76;100.00;95852.94;1034981;28;20030;-67
2021/09/14 03:09:44;;;;;;;35.50;25.50;;;;;;;12.75;100.00;95846.13;1035096;28;20022;-67
2021/09/14 03:10:15;;;;;;;29.67;24.92;;;;;;;12.70;100.00;95840.88;1031225;28;20488;-67
2021/09/14 03:10:45;;;;;;;29.02;24.27;;;;;;;12.73;100.00;95848.22;1019814;28;20031;-66
2021/09/14 03:11:17;;;;;;;31.00;25.38;;;;;;;12.69;100.00;95836.69;1026322;28;20409;-67
2021/09/14 03:11:47;;;;;;;32.13;26.38;;;;;;;12.73;100.00;95845.59;1022986;29;20015;-66
2021/09/14 03:12:18;;;;;;;40.20;27.08;;;;;;;12.72;100.00;95847.44;1030192;28;20300;-64
2021/09/14 03:12:48;;;;;;;39.05;27.17;;;;;;;12.72;100.00;95844.03;1026762;28;20023;-66
2021/09/14 03:13:19;;;;;;;30.67;26.02;;;;;;;12.73;100.00;95848.22;1027072;28;20073;-66
2021/09/14 03:13:49;;;;;;;35.95;27.17;;;;;;;12.70;100.00;95851.41;1027165;28;20027;-65